Time;durP1;ratioP1;P1;durP2;ratioP2;P2;SDS_P1;SDS_P2;PMS_P1;PMS_P2;Temp;Humidity;BMP_temperature;BMP_pressure;BME280_temperature;BME280_humidity;BME280_pressure;Samples;Min_cycle;Max_cycle;Signal;HPM_P1;HPM_P2
2021/09/20 00:01:20;;;;;;;9.13;6.63;;;15.10;99.90;;;;;;4993333;28;25131;-74
2021/09/20 00:03:46;;;;;;;8.18;6.63;;;15.20;99.90;;;;;;4995552;28;25058;-72
2021/09/20 00:06:12;;;;;;;7.35;6.50;;;15.20;99.90;;;;;;4996469;28;25064;-74
2021/09/20 00:08:38;;;;;;;9.13;6.28;;;15.10;99.90;;;;;;4996337;28;25076;-72
2021/09/20 00:11:04;;;;;;;8.05;6.70;;;15.10;99.90;;;;;;4993116;28;25074;-72
2021/09/20 00:13:30;;;;;;;11.25;6.00;;;15.10;99.90;;;;;;4983831;28;25071;-73
2021/09/20 00:15:55;;;;;;;10.68;6.65;;;15.00;99.90;;;;;;4985507;28;25049;-72
2021/09/20 00:18:21;;;;;;;9.63;7.22;;;15.00;99.90;;;;;;5002511;28;25058;-73
2021/09/20 00:20:47;;;;;;;10.60;6.28;;;15.00;99.90;;;;;;4988802;28;25080;-74
2021/09/20 00:23:12;;;;;;;8.18;7.05;;;15.00;99.90;;;;;;4997181;28;25090;-72
2021/09/20 00:25:38;;;;;;;11.20;7.03;;;15.00;99.90;;;;;;4998820;28;25129;-74
2021/09/20 00:28:04;;;;;;;7.88;6.88;;;15.10;99.90;;;;;;4993109;28;25165;-72
2021/09/20 00:30:29;;;;;;;8.20;6.30;;;15.10;99.90;;;;;;5001346;28;25062;-73
2021/09/20 00:32:55;;;;;;;8.18;6.88;;;15.00;99.90;;;;;;4984049;28;25066;-72
2021/09/20 00:35:21;;;;;;;7.00;6.05;;;14.90;99.90;;;;;;4997316;28;25149;-73
2021/09/20 00:37:46;;;;;;;7.97;6.72;;;14.80;99.90;;;;;;4987868;28;25084;-74
2021/09/20 00:40:12;;;;;;;8.70;6.20;;;14.80;99.90;;;;;;4982658;28;25063;-73
2021/09/20 00:42:38;;;;;;;7.95;6.35;;;14.90;99.90;;;;;;4987083;28;25069;-73
2021/09/20 00:45:06;;;;;;;7.00;6.30;;;14.90;99.90;;;;;;4982188;28;25067;-73
2021/09/20 00:47:31;;;;;;;7.07;5.95;;;15.00;99.90;;;;;;4989754;28;25121;-72
2021/09/20 00:49:57;;;;;;;9.32;6.28;;;14.90;99.90;;;;;;4983911;28;25112;-72
2021/09/20 00:52:23;;;;;;;8.38;6.53;;;14.80;99.90;;;;;;4985221;28;25058;-72
2021/09/20 00:54:50;;;;;;;8.07;6.20;;;14.70;99.90;;;;;;4988285;28;25061;-71
2021/09/20 00:57:17;;;;;;;10.50;6.43;;;14.70;99.90;;;;;;4989343;28;25077;-73
2021/09/20 00:59:43;;;;;;;9.43;7.43;;;14.70;99.90;;;;;;4994190;28;25084;-72
2021/09/20 01:02:08;;;;;;;7.18;6.00;;;14.70;99.90;;;;;;4985665;28;25074;-71
2021/09/20 01:04:34;;;;;;;9.82;7.55;;;14.80;99.90;;;;;;4988561;28;25057;-72
2021/09/20 01:07:00;;;;;;;9.95;6.50;;;14.80;99.90;;;;;;4988017;28;25082;-74
2021/09/20 01:09:26;;;;;;;10.57;6.55;;;14.70;99.90;;;;;;4986572;28;25055;-71
2021/09/20 01:11:53;;;;;;;9.77;6.10;;;14.60;99.90;;;;;;4989243;28;25080;-72
2021/09/20 01:14:19;;;;;;;7.88;6.40;;;14.60;99.90;;;;;;4988853;28;25045;-71
2021/09/20 01:16:44;;;;;;;8.38;6.38;;;14.60;99.90;;;;;;4984670;28;25145;-70
2021/09/20 01:19:10;;;;;;;6.80;5.80;;;14.60;99.90;;;;;;4984192;28;25146;-74
2021/09/20 01:21:36;;;;;;;7.70;5.80;;;14.60;99.90;;;;;;4986904;28;25136;-73
2021/09/20 01:24:02;;;;;;;8.73;6.10;;;14.70;99.90;;;;;;4980615;28;25128;-74
2021/09/20 01:26:27;;;;;;;9.65;6.20;;;14.70;99.90;;;;;;4982753;28;25054;-73
2021/09/20 01:28:53;;;;;;;7.72;5.82;;;14.80;99.90;;;;;;4987692;28;25131;-74
2021/09/20 01:31:19;;;;;;;6.80;5.82;;;14.90;99.90;;;;;;4981859;28;25099;-72
2021/09/20 01:33:45;;;;;;;7.55;5.95;;;14.80;99.90;;;;;;4990998;28;25054;-73
2021/09/20 01:36:11;;;;;;;11.27;6.05;;;14.80;99.90;;;;;;4976699;28;25056;-72
2021/09/20 01:38:37;;;;;;;10.60;6.55;;;14.70;99.90;;;;;;4983643;28;25056;-74
2021/09/20 01:41:03;;;;;;;8.82;5.70;;;14.70;99.90;;;;;;4990868;28;25064;-74
2021/09/20 01:43:28;;;;;;;7.28;6.22;;;14.60;99.90;;;;;;5006708;28;25070;-72
2021/09/20 01:45:54;;;;;;;9.10;6.45;;;14.60;99.90;;;;;;4986212;28;25056;-73
2021/09/20 01:48:20;;;;;;;13.77;7.22;;;14.60;99.90;;;;;;5000253;28;25142;-73
2021/09/20 01:50:46;;;;;;;8.93;6.80;;;14.50;99.90;;;;;;4988860;28;25068;-72
2021/09/20 01:53:13;;;;;;;9.57;6.75;;;14.50;99.90;;;;;;4987643;28;25078;-73
2021/09/20 01:55:39;;;;;;;10.15;8.45;;;14.50;99.90;;;;;;4996984;28;25082;-72
2021/09/20 01:58:05;;;;;;;8.35;6.80;;;14.40;99.90;;;;;;4997922;28;25077;-72
2021/09/20 02:00:31;;;;;;;9.73;7.70;;;14.40;99.90;;;;;;5009953;28;25074;-73
2021/09/20 02:02:59;;;;;;;10.13;6.97;;;14.50;99.90;;;;;;5012206;28;25078;-73
2021/09/20 02:05:27;;;;;;;7.65;6.43;;;14.40;99.90;;;;;;5017142;28;25122;-75
2021/09/20 02:08:05;;;;;;;9.32;7.18;;;14.50;99.90;;;;;;5016910;28;25086;-74
2021/09/20 02:10:31;;;;;;;9.60;6.45;;;14.50;99.90;;;;;;4984370;28;25119;-73
2021/09/20 02:12:57;;;;;;;9.07;6.15;;;14.50;99.90;;;;;;4992274;28;25088;-72
2021/09/20 02:15:22;;;;;;;9.35;6.90;;;14.60;99.90;;;;;;4992031;28;25065;-73
2021/09/20 02:17:48;;;;;;;8.05;6.55;;;14.60;99.90;;;;;;5000396;28;25060;-73
2021/09/20 02:20:14;;;;;;;10.27;6.93;;;14.50;99.90;;;;;;4995780;28;25135;-72
2021/09/20 02:22:40;;;;;;;7.07;6.35;;;14.50;99.90;;;;;;4994958;28;25071;-73
2021/09/20 02:25:09;;;;;;;10.77;6.93;;;14.40;99.90;;;;;;4984410;28;25076;-74
2021/09/20 02:27:36;;;;;;;11.48;6.97;;;14.50;99.90;;;;;;4996335;28;25057;-72
2021/09/20 02:30:04;;;;;;;8.77;6.47;;;14.40;99.90;;;;;;4991889;28;25058;-74
2021/09/20 02:32:33;;;;;;;8.65;6.47;;;14.30;99.90;;;;;;4989638;28;25145;-71
2021/09/20 02:34:59;;;;;;;8.57;6.72;;;14.40;99.90;;;;;;4988509;28;25072;-72
2021/09/20 02:37:24;;;;;;;10.27;7.00;;;14.50;99.90;;;;;;4992640;28;25064;-73
2021/09/20 02:39:50;;;;;;;8.45;7.15;;;14.50;99.90;;;;;;4993409;28;25114;-73
2021/09/20 02:42:16;;;;;;;8.00;6.80;;;14.40;99.90;;;;;;4997985;28;25063;-73
2021/09/20 02:44:41;;;;;;;10.85;6.93;;;14.50;99.90;;;;;;4988792;28;25144;-73
2021/09/20 02:47:07;;;;;;;6.90;5.97;;;14.50;99.90;;;;;;4988433;28;25084;-72
2021/09/20 02:49:32;;;;;;;8.88;6.57;;;14.40;99.90;;;;;;4993778;28;25094;-73
2021/09/20 02:51:58;;;;;;;8.70;6.57;;;14.40;99.90;;;;;;4985081;28;25077;-71
2021/09/20 02:54:23;;;;;;;10.75;7.13;;;14.20;99.90;;;;;;4988832;28;25067;-74
2021/09/20 02:56:49;;;;;;;8.07;7.20;;;14.20;99.90;;;;;;4989331;28;25056;-72
2021/09/20 02:59:14;;;;;;;8.13;6.75;;;14.20;99.90;;;;;;4989268;28;25131;-75
2021/09/20 03:01:40;;;;;;;8.07;7.28;;;14.20;99.90;;;;;;5005217;28;25054;-73
2021/09/20 03:04:06;;;;;;;7.68;6.28;;;14.20;99.90;;;;;;4989935;28;25059;-72
2021/09/20 03:06:31;;;;;;;6.97;5.78;;;14.10;99.90;;;;;;4991056;28;25070;-73
2021/09/20 03:08:57;;;;;;;9.15;6.30;;;14.10;99.90;;;;;;4986989;28;25060;-74
2021/09/20 03:11:23;;;;;;;7.63;5.95;;;14.10;99.90;;;;;;4992815;28;25105;-72
2021/09/20 03:13:48;;;;;;;6.70;5.95;;;14.10;99.90;;;;;;4985507;28;25056;-72
2021/09/20 03:16:14;;;;;;;7.10;6.18;;;14.10;99.90;;;;;;4985539;28;25113;-73
2021/09/20 03:18:40;;;;;;;7.97;6.60;;;14.10;99.90;;;;;;4990649;28;25070;-73
2021/09/20 03:21:05;;;;;;;6.55;5.85;;;14.10;99.90;;;;;;4990197;28;25065;-73
2021/09/20 03:23:31;;;;;;;7.60;6.25;;;14.00;99.90;;;;;;5008573;28;25073;-75
2021/09/20 03:25:57;;;;;;;8.43;6.18;;;14.00;99.90;;;;;;5003960;28;25055;-75
2021/09/20 03:28:22;;;;;;;6.65;5.90;;;14.10;99.90;;;;;;5000070;28;25062;-73
2021/09/20 03:30:48;;;;;;;8.23;6.32;;;14.10;99.90;;;;;;4996639;28;25095;-73
2021/09/20 03:33:13;;;;;;;8.32;6.88;;;14.20;99.90;;;;;;5004171;28;25081;-72
2021/09/20 03:35:39;;;;;;;10.90;5.88;;;14.20;99.90;;;;;;5008702;28;25053;-73
2021/09/20 03:38:05;;;;;;;7.18;5.50;;;14.30;99.90;;;;;;5003814;28;25064;-73
2021/09/20 03:40:31;;;;;;;11.38;6.50;;;14.40;99.90;;;;;;5012410;28;25082;-74
2021/09/20 03:42:56;;;;;;;8.93;6.05;;;14.30;99.90;;;;;;5008586;28;25101;-73
2021/09/20 03:45:22;;;;;;;8.05;6.75;;;14.30;99.90;;;;;;5006416;28;25099;-72
2021/09/20 03:47:47;;;;;;;7.97;6.28;;;14.30;99.90;;;;;;5001140;28;25090;-73
2021/09/20 03:50:13;;;;;;;6.82;6.15;;;14.30;99.90;;;;;;5008715;28;25065;-72
2021/09/20 03:52:42;;;;;;;8.43;6.38;;;14.20;99.90;;;;;;4999453;28;25071;-73
2021/09/20 03:55:08;;;;;;;11.18;6.80;;;14.10;99.90;;;;;;4999058;28;25078;-71
2021/09/20 03:57:34;;;;;;;8.85;6.82;;;14.00;99.90;;;;;;4998040;28;25062;-72
2021/09/20 03:59:59;;;;;;;10.80;6.82;;;13.90;99.90;;;;;;4989535;28;25069;-72
2021/09/20 04:02:25;;;;;;;11.05;6.82;;;14.00;99.90;;;;;;4989181;28;25049;-72
2021/09/20 04:04:50;;;;;;;10.38;6.97;;;14.10;99.90;;;;;;4998344;28;25068;-73
2021/09/20 04:07:16;;;;;;;13.50;7.57;;;14.10;99.90;;;;;;4998649;28;25074;-73
2021/09/20 04:09:42;;;;;;;12.07;8.50;;;14.10;99.90;;;;;;4992113;28;25097;-72
2021/09/20 04:12:09;;;;;;;9.43;8.07;;;13.90;99.90;;;;;;4992128;28;25116;-73
2021/09/20 04:14:37;;;;;;;12.52;8.18;;;13.90;99.90;;;;;;4991736;28;25055;-73
2021/09/20 04:17:04;;;;;;;12.07;9.02;;;13.80;99.90;;;;;;4989066;28;25070;-72
2021/09/20 04:19:29;;;;;;;11.45;8.25;;;13.80;99.90;;;;;;4988838;28;25052;-72
2021/09/20 04:21:55;;;;;;;9.50;7.75;;;13.80;99.90;;;;;;4991774;28;25064;-71
2021/09/20 04:24:20;;;;;;;16.15;9.32;;;13.80;99.90;;;;;;4988164;28;25096;-74
2021/09/20 04:26:46;;;;;;;11.30;8.80;;;13.80;99.90;;;;;;4996186;28;25075;-73
2021/09/20 04:29:11;;;;;;;16.70;8.82;;;13.80;99.90;;;;;;4986445;28;25072;-71
2021/09/20 04:31:37;;;;;;;12.45;8.75;;;13.80;99.90;;;;;;4986288;28;25054;-72
2021/09/20 04:34:03;;;;;;;12.82;10.13;;;13.80;99.90;;;;;;4986791;28;25073;-73
2021/09/20 04:36:28;;;;;;;11.57;9.32;;;13.70;99.90;;;;;;4986185;28;25053;-71
2021/09/20 04:38:54;;;;;;;11.23;9.23;;;13.70;99.90;;;;;;4988960;28;25083;-75
2021/09/20 04:41:19;;;;;;;11.82;9.43;;;13.60;99.90;;;;;;4991266;28;25080;-71
2021/09/20 04:43:45;;;;;;;11.35;9.05;;;13.60;99.90;;;;;;4991381;28;25071;-74
2021/09/20 04:46:10;;;;;;;13.15;9.85;;;13.50;99.90;;;;;;4992315;28;25100;-74
2021/09/20 04:48:36;;;;;;;11.02;8.75;;;13.50;99.90;;;;;;4992063;28;25157;-74
2021/09/20 04:51:02;;;;;;;11.13;8.27;;;13.40;99.90;;;;;;4986094;28;25143;-75
2021/09/20 04:53:28;;;;;;;11.07;8.10;;;13.40;99.90;;;;;;4988894;28;25070;-73
2021/09/20 04:55:53;;;;;;;11.10;8.35;;;13.50;99.90;;;;;;4982137;28;25132;-72
2021/09/20 04:58:19;;;;;;;11.18;8.30;;;13.50;99.90;;;;;;5000016;28;25043;-74
2021/09/20 05:00:45;;;;;;;11.35;8.15;;;13.50;99.90;;;;;;4989085;28;25070;-73
2021/09/20 05:03:10;;;;;;;10.80;8.38;;;13.50;99.90;;;;;;4987500;28;25107;-75
2021/09/20 05:05:36;;;;;;;9.45;8.02;;;13.60;99.90;;;;;;4987916;28;25077;-74
2021/09/20 05:08:02;;;;;;;10.07;8.57;;;13.70;99.90;;;;;;4977639;28;25158;-75
2021/09/20 05:10:28;;;;;;;10.93;7.65;;;13.80;99.90;;;;;;4986054;28;25056;-74
2021/09/20 05:12:54;;;;;;;11.13;8.20;;;13.60;99.90;;;;;;4986685;28;25071;-73
2021/09/20 05:15:20;;;;;;;11.07;7.93;;;13.50;99.90;;;;;;4991084;28;25056;-72
2021/09/20 05:17:45;;;;;;;11.77;8.25;;;13.50;99.90;;;;;;4995996;28;25091;-75
2021/09/20 05:20:13;;;;;;;11.98;8.38;;;13.60;99.90;;;;;;4990428;28;25109;-73
2021/09/20 05:22:39;;;;;;;9.98;7.32;;;13.60;99.90;;;;;;4990411;28;25145;-74
2021/09/20 05:25:05;;;;;;;10.88;7.95;;;13.50;99.90;;;;;;5003462;28;25078;-73
2021/09/20 05:27:31;;;;;;;9.63;7.65;;;13.60;99.90;;;;;;4984672;28;25128;-76
2021/09/20 05:29:59;;;;;;;9.63;7.53;;;13.60;99.90;;;;;;4981576;28;25066;-74
2021/09/20 05:32:25;;;;;;;10.38;7.63;;;13.40;99.90;;;;;;4990243;28;25114;-74
2021/09/20 05:34:51;;;;;;;9.93;7.85;;;13.40;99.90;;;;;;4989687;28;25143;-75
2021/09/20 05:37:17;;;;;;;12.18;8.68;;;13.40;99.90;;;;;;4994941;28;25105;-73
2021/09/20 05:39:43;;;;;;;10.63;8.15;;;13.30;99.90;;;;;;4997222;28;25073;-74
2021/09/20 05:42:09;;;;;;;9.55;8.25;;;13.30;99.90;;;;;;5000364;28;25077;-75
2021/09/20 05:44:34;;;;;;;11.85;8.10;;;13.40;99.90;;;;;;4993990;28;25083;-74
2021/09/20 05:47:00;;;;;;;12.02;8.65;;;13.40;99.90;;;;;;4991931;28;25095;-73
2021/09/20 05:49:25;;;;;;;10.73;8.48;;;13.40;99.90;;;;;;4996738;28;25060;-74
2021/09/20 05:51:51;;;;;;;10.95;7.85;;;13.50;99.90;;;;;;4994962;28;25049;-74
2021/09/20 05:54:17;;;;;;;11.52;7.85;;;13.40;99.90;;;;;;4994368;28;25080;-74
2021/09/20 05:56:43;;;;;;;10.35;7.25;;;13.50;99.90;;;;;;4996883;28;25078;-76
2021/09/20 05:59:08;;;;;;;9.40;7.03;;;13.40;99.90;;;;;;4993957;28;25059;-75
2021/09/20 06:01:34;;;;;;;9.32;7.35;;;13.30;99.90;;;;;;4992372;28;25144;-72
2021/09/20 06:04:00;;;;;;;11.88;8.35;;;13.40;99.90;;;;;;5007166;28;25060;-74
2021/09/20 06:06:25;;;;;;;11.63;8.15;;;13.40;99.90;;;;;;4991674;28;25063;-74
2021/09/20 06:08:51;;;;;;;11.63;8.27;;;13.40;99.90;;;;;;4993921;28;25105;-74
2021/09/20 06:11:17;;;;;;;11.02;8.63;;;13.30;99.90;;;;;;4991535;28;25086;-74
2021/09/20 06:13:42;;;;;;;12.63;8.70;;;13.20;99.90;;;;;;4992052;28;25155;-74
2021/09/20 06:16:08;;;;;;;12.85;8.05;;;13.20;99.90;;;;;;4984742;28;25100;-74
2021/09/20 06:18:34;;;;;;;11.52;8.15;;;13.10;99.90;;;;;;5005090;28;25129;-76
2021/09/20 06:21:00;;;;;;;10.88;8.07;;;13.20;99.90;;;;;;4993150;28;25057;-74
2021/09/20 06:23:26;;;;;;;10.65;8.32;;;13.10;99.90;;;;;;4993667;28;25111;-74
2021/09/20 06:25:52;;;;;;;10.80;8.30;;;13.10;99.90;;;;;;4996819;28;25107;-75
2021/09/20 06:28:17;;;;;;;13.40;8.50;;;13.10;99.90;;;;;;4992700;28;25059;-75
2021/09/20 06:30:43;;;;;;;15.60;9.27;;;13.10;99.90;;;;;;4981463;28;25094;-74
2021/09/20 06:33:09;;;;;;;10.18;8.25;;;13.10;99.90;;;;;;4993943;28;25086;-75
2021/09/20 06:35:35;;;;;;;11.70;8.75;;;13.00;99.90;;;;;;4984408;28;25100;-75
2021/09/20 06:38:02;;;;;;;17.05;8.95;;;13.10;99.90;;;;;;4977925;28;25067;-73
2021/09/20 06:40:28;;;;;;;12.02;8.38;;;13.10;99.90;;;;;;5004904;28;25060;-74
2021/09/20 06:42:55;;;;;;;12.63;9.30;;;13.10;99.90;;;;;;4979497;28;25160;-74
2021/09/20 06:45:21;;;;;;;12.52;8.43;;;13.00;99.90;;;;;;4999715;28;25063;-75
2021/09/20 06:47:47;;;;;;;12.10;8.43;;;13.10;99.90;;;;;;4998326;28;25068;-74
2021/09/20 06:50:13;;;;;;;15.55;9.05;;;13.20;99.90;;;;;;5004749;28;25103;-75
2021/09/20 06:52:39;;;;;;;11.32;7.80;;;13.10;99.90;;;;;;4997074;28;25070;-74
2021/09/20 06:55:06;;;;;;;11.52;8.15;;;13.10;99.90;;;;;;4990153;28;25164;-74
2021/09/20 06:57:32;;;;;;;11.23;8.70;;;13.20;99.90;;;;;;4985557;28;25073;-74
2021/09/20 06:59:57;;;;;;;11.82;8.35;;;13.20;99.90;;;;;;5005489;28;25062;-75
2021/09/20 07:02:23;;;;;;;11.80;8.05;;;13.20;99.90;;;;;;4982110;28;25100;-74
2021/09/20 07:04:49;;;;;;;9.65;7.80;;;13.20;99.90;;;;;;4988356;28;25087;-76
2021/09/20 07:07:17;;;;;;;11.73;8.35;;;13.20;99.90;;;;;;4986292;28;25092;-74
2021/09/20 07:09:44;;;;;;;10.25;8.18;;;13.30;99.90;;;;;;4980526;28;25071;-75
2021/09/20 07:12:10;;;;;;;13.50;8.80;;;13.50;99.90;;;;;;4978775;28;25084;-74
2021/09/20 07:14:36;;;;;;;14.02;8.75;;;13.50;99.90;;;;;;4992666;28;25145;-76
2021/09/20 07:17:02;;;;;;;13.43;8.55;;;13.60;99.90;;;;;;4979534;28;25060;-74
2021/09/20 07:19:30;;;;;;;13.02;8.52;;;13.60;99.90;;;;;;4987076;28;25061;-76
2021/09/20 07:21:57;;;;;;;13.07;8.13;;;13.60;99.90;;;;;;4985242;28;25105;-77
2021/09/20 07:24:23;;;;;;;8.77;6.88;;;13.60;99.90;;;;;;4983519;28;25056;-75
2021/09/20 07:26:48;;;;;;;9.73;8.18;;;13.50;99.90;;;;;;4993042;28;25072;-74
2021/09/20 07:29:14;;;;;;;13.75;8.75;;;13.50;99.90;;;;;;4989285;28;25070;-77
2021/09/20 07:31:39;;;;;;;14.70;9.88;;;13.50;99.90;;;;;;4985561;28;25088;-74
2021/09/20 07:34:05;;;;;;;10.23;7.70;;;13.60;99.90;;;;;;4992417;28;25079;-75
2021/09/20 07:36:31;;;;;;;11.55;8.35;;;13.70;99.90;;;;;;4982566;28;25101;-75
2021/09/20 07:38:57;;;;;;;13.30;8.63;;;13.60;99.90;;;;;;4984162;28;25073;-76
2021/09/20 07:41:22;;;;;;;11.82;8.90;;;13.70;99.90;;;;;;4993260;28;25152;-73
2021/09/20 07:43:49;;;;;;;12.00;9.10;;;13.80;99.90;;;;;;4993356;28;25135;-75
2021/09/20 07:46:18;;;;;;;10.95;8.23;;;13.80;99.90;;;;;;4992774;28;25063;-76
2021/09/20 07:48:43;;;;;;;12.48;8.32;;;14.00;99.90;;;;;;4989802;28;25110;-76
2021/09/20 07:51:09;;;;;;;13.75;8.68;;;14.10;99.90;;;;;;4992662;28;25068;-74
2021/09/20 07:53:34;;;;;;;10.90;8.68;;;14.30;99.90;;;;;;4992172;28;25061;-75
2021/09/20 07:56:00;;;;;;;12.43;8.30;;;14.20;99.90;;;;;;4989091;28;25114;-75
2021/09/20 07:58:27;;;;;;;9.75;7.90;;;14.10;99.90;;;;;;4989680;28;25051;-74
2021/09/20 08:00:52;;;;;;;12.20;8.75;;;14.30;99.90;;;;;;4990465;28;25072;-78
2021/09/20 08:03:18;;;;;;;12.57;8.55;;;14.40;99.90;;;;;;4997449;28;25141;-72
2021/09/20 08:05:45;;;;;;;13.85;8.10;;;14.20;99.90;;;;;;5013946;28;25081;-75
2021/09/20 08:08:13;;;;;;;12.63;8.30;;;13.90;99.90;;;;;;5013102;28;25081;-74
2021/09/20 08:10:38;;;;;;;12.88;8.80;;;14.00;99.90;;;;;;5013555;28;25057;-76
2021/09/20 08:13:05;;;;;;;12.20;7.72;;;14.10;99.90;;;;;;5000962;28;25073;-72
2021/09/20 08:15:31;;;;;;;15.13;8.40;;;14.20;99.90;;;;;;4977299;28;25072;-75
2021/09/20 08:17:57;;;;;;;11.55;8.85;;;14.30;99.90;;;;;;4990389;28;25060;-72
2021/09/20 08:20:23;;;;;;;13.23;9.10;;;14.20;99.90;;;;;;4989659;28;25095;-75
2021/09/20 08:22:49;;;;;;;12.45;8.90;;;14.20;99.90;;;;;;4989078;28;25081;-73
2021/09/20 08:25:17;;;;;;;11.98;8.75;;;14.00;99.90;;;;;;4988910;28;25080;-74
2021/09/20 08:27:43;;;;;;;9.40;8.15;;;14.10;99.90;;;;;;4990949;28;25127;-74
2021/09/20 08:30:09;;;;;;;10.80;8.80;;;14.30;99.90;;;;;;4988681;28;25096;-74
2021/09/20 08:32:34;;;;;;;13.85;8.35;;;14.40;99.90;;;;;;4990373;28;25062;-75
2021/09/20 08:35:00;;;;;;;12.23;9.75;;;14.60;99.90;;;;;;4990835;28;25058;-74
2021/09/20 08:37:27;;;;;;;18.17;9.60;;;14.50;99.90;;;;;;4989676;28;25155;-74
2021/09/20 08:39:52;;;;;;;11.10;8.45;;;14.30;99.90;;;;;;4990095;28;25076;-71
2021/09/20 08:42:19;;;;;;;12.90;9.23;;;14.40;99.90;;;;;;4989909;28;25054;-74
2021/09/20 08:44:45;;;;;;;13.18;8.35;;;14.50;99.90;;;;;;4990147;28;25126;-72
2021/09/20 08:47:16;;;;;;;11.15;9.48;;;14.60;99.90;;;;;;5002085;28;25064;-75
2021/09/20 08:49:42;;;;;;;12.05;9.82;;;14.80;99.90;;;;;;4985698;28;25055;-73
2021/09/20 08:52:08;;;;;;;11.32;8.15;;;14.90;99.90;;;;;;4985183;28;25072;-73
2021/09/20 08:54:34;;;;;;;13.80;9.10;;;15.20;99.90;;;;;;4988262;28;25147;-75
2021/09/20 08:57:00;;;;;;;13.38;9.63;;;15.60;99.90;;;;;;4987937;28;25077;-73
2021/09/20 08:59:26;;;;;;;18.52;10.80;;;15.20;99.90;;;;;;4991376;28;25176;-71
2021/09/20 09:01:53;;;;;;;13.00;10.35;;;15.00;99.90;;;;;;4990686;28;25077;-72
2021/09/20 09:04:27;;;;;;;11.40;8.70;;;14.80;99.90;;;;;;4989273;28;25141;-74
2021/09/20 09:07:02;;;;;;;11.23;9.50;;;14.90;99.90;;;;;;4989073;28;25089;-73
2021/09/20 09:09:37;;;;;;;12.73;10.70;;;15.00;99.90;;;;;;4989816;28;25077;-74
2021/09/20 09:12:29;;;;;;;16.60;9.32;;;14.90;99.90;;;;;;4988034;28;25054;-71
2021/09/20 09:14:58;;;;;;;12.65;9.93;;;14.90;99.90;;;;;;4989722;28;25067;-74
2021/09/20 09:17:48;;;;;;;12.13;10.45;;;15.10;99.90;;;;;;4988493;28;25070;-74
2021/09/20 09:20:37;;;;;;;14.10;10.40;;;15.00;99.90;;;;;;4988717;28;25058;-71
2021/09/20 09:23:06;;;;;;;14.82;11.52;;;15.00;99.90;;;;;;4989054;28;25052;-73
2021/09/20 09:25:44;;;;;;;13.88;11.13;;;14.90;99.90;;;;;;4989763;28;25086;-73
2021/09/20 09:28:18;;;;;;;16.15;11.05;;;14.70;99.90;;;;;;5004821;28;25061;-72
2021/09/20 09:30:47;;;;;;;18.05;11.93;;;14.90;99.90;;;;;;4989697;28;25086;-73
2021/09/20 09:33:40;;;;;;;12.75;10.43;;;14.90;99.90;;;;;;4989476;28;25133;-73
2021/09/20 09:36:06;;;;;;;14.30;11.00;;;15.00;99.90;;;;;;4987333;28;25081;-72
2021/09/20 09:38:32;;;;;;;14.07;11.30;;;15.30;99.90;;;;;;4990150;28;25064;-73
2021/09/20 09:41:01;;;;;;;15.50;11.18;;;15.00;99.90;;;;;;4974568;28;25061;-74
2021/09/20 09:43:36;;;;;;;16.40;11.50;;;15.00;99.90;;;;;;4990007;28;25083;-72
2021/09/20 09:46:23;;;;;;;13.20;11.10;;;15.00;99.90;;;;;;4996593;28;25060;-73
2021/09/20 09:48:49;;;;;;;14.73;11.10;;;15.10;99.90;;;;;;4984795;28;25063;-71
2021/09/20 09:51:17;;;;;;;14.25;10.68;;;15.20;99.90;;;;;;4990278;28;25140;-72
2021/09/20 09:53:47;;;;;;;12.77;10.98;;;15.10;99.90;;;;;;4989653;28;25060;-74
2021/09/20 09:56:18;;;;;;;13.18;9.25;;;15.40;99.90;;;;;;4994206;28;25065;-78
2021/09/20 09:58:56;;;;;;;15.70;11.00;;;15.70;99.90;;;;;;4990459;28;25064;-73
2021/09/20 10:01:31;;;;;;;11.23;9.98;;;15.50;99.90;;;;;;4991807;28;25076;-73
2021/09/20 10:04:07;;;;;;;11.27;9.32;;;15.60;99.90;;;;;;4994257;28;25074;-73
2021/09/20 10:06:42;;;;;;;15.00;10.77;;;15.80;99.90;;;;;;4994467;28;25078;-73
2021/09/20 10:09:09;;;;;;;11.60;9.75;;;15.70;99.90;;;;;;4993289;28;25125;-74
2021/09/20 10:11:36;;;;;;;12.20;9.65;;;15.80;99.90;;;;;;4991722;28;25077;-73
2021/09/20 10:14:02;;;;;;;12.32;10.32;;;16.00;99.90;;;;;;4991614;28;25106;-73
2021/09/20 10:16:30;;;;;;;12.77;9.35;;;16.10;99.90;;;;;;4991764;28;25071;-73
2021/09/20 10:18:56;;;;;;;16.40;9.98;;;16.20;99.90;;;;;;4984985;28;25125;-71
2021/09/20 10:21:21;;;;;;;16.50;9.70;;;16.20;99.90;;;;;;4992511;28;25072;-73
2021/09/20 10:23:48;;;;;;;15.80;10.50;;;16.10;99.90;;;;;;4991851;28;25127;-74
2021/09/20 10:26:14;;;;;;;15.65;10.52;;;16.20;99.90;;;;;;4993273;28;25130;-73
2021/09/20 10:28:40;;;;;;;13.88;10.27;;;16.40;99.90;;;;;;4994165;28;25150;-72
2021/09/20 10:31:09;;;;;;;12.57;10.57;;;16.30;99.90;;;;;;4994177;28;25056;-74
2021/09/20 10:33:35;;;;;;;14.52;9.88;;;16.20;99.90;;;;;;5009611;28;25078;-75
2021/09/20 10:36:00;;;;;;;13.18;10.10;;;16.40;99.90;;;;;;4996166;28;25089;-73
2021/09/20 10:38:32;;;;;;;17.33;10.95;;;16.60;99.90;;;;;;4990812;28;25094;-74
2021/09/20 10:41:21;;;;;;;14.30;10.18;;;16.70;99.90;;;;;;4989753;28;25134;-72
2021/09/20 10:43:59;;;;;;;11.10;9.93;;;16.80;99.90;;;;;;4987089;28;25071;-73
2021/09/20 10:46:28;;;;;;;12.23;10.57;;;17.00;99.90;;;;;;4988011;28;25096;-74
2021/09/20 10:48:59;;;;;;;10.98;9.75;;;17.20;99.90;;;;;;4988870;28;25152;-74
2021/09/20 10:51:30;;;;;;;10.63;9.52;;;17.20;99.90;;;;;;4990835;28;25145;-73
2021/09/20 10:54:18;;;;;;;15.63;10.88;;;17.20;99.90;;;;;;4986906;28;25071;-72
2021/09/20 10:56:46;;;;;;;10.63;9.15;;;17.10;99.90;;;;;;4987483;28;25122;-72
2021/09/20 10:59:14;;;;;;;12.60;9.93;;;17.20;99.90;;;;;;4994134;28;25084;-72
2021/09/20 11:01:40;;;;;;;11.18;9.93;;;17.40;99.90;;;;;;4990680;28;25116;-71
2021/09/20 11:04:14;;;;;;;9.77;8.65;;;17.50;99.90;;;;;;4990049;28;25072;-70
2021/09/20 11:06:41;;;;;;;9.90;8.52;;;17.20;99.90;;;;;;4990228;28;25073;-72
2021/09/20 11:09:07;;;;;;;9.55;8.13;;;17.30;99.90;;;;;;4990528;28;25148;-73
2021/09/20 11:11:44;;;;;;;11.93;9.30;;;17.00;99.90;;;;;;4989983;28;25071;-72
2021/09/20 11:14:14;;;;;;;11.77;9.13;;;17.10;99.90;;;;;;4990474;28;25062;-71
2021/09/20 11:16:49;;;;;;;16.05;9.00;;;17.10;99.90;;;;;;4991202;28;25090;-70
2021/09/20 11:19:33;;;;;;;11.32;9.10;;;17.10;99.90;;;;;;4990159;28;25068;-74
2021/09/20 11:24:37;;;;;;;8.98;8.07;;;16.70;99.90;;;;;;4990080;28;25113;-71
2021/09/20 11:27:12;;;;;;;9.63;7.85;;;16.80;99.90;;;;;;4989060;28;25081;-71
2021/09/20 11:29:38;;;;;;;19.80;8.50;;;16.90;99.90;;;;;;4989713;28;25068;-72
2021/09/20 11:32:05;;;;;;;10.90;7.70;;;17.30;99.90;;;;;;4987918;28;25055;-72
2021/09/20 11:34:33;;;;;;;11.02;8.18;;;17.90;99.90;;;;;;4989244;28;25068;-71
2021/09/20 11:37:09;;;;;;;13.70;8.15;;;18.30;99.20;;;;;;4989214;28;25079;-74
2021/09/20 11:39:56;;;;;;;9.60;8.63;;;18.60;98.50;;;;;;4986254;28;25063;-72
2021/09/20 11:42:26;;;;;;;11.65;8.80;;;18.70;98.30;;;;;;4982193;28;25075;-70
2021/09/20 11:44:56;;;;;;;11.50;7.68;;;18.70;98.10;;;;;;4982683;28;25088;-71
2021/09/20 11:47:25;;;;;;;9.05;7.70;;;19.00;98.80;;;;;;4989042;28;25130;-72
2021/09/20 11:50:02;;;;;;;11.55;8.63;;;19.40;98.10;;;;;;4986527;28;25054;-72
2021/09/20 11:52:33;;;;;;;13.88;7.50;;;19.10;96.90;;;;;;4987041;28;25070;-71
2021/09/20 11:54:59;;;;;;;11.85;6.63;;;19.40;96.60;;;;;;4985606;28;25050;-74
2021/09/20 11:57:26;;;;;;;6.85;6.15;;;19.80;96.20;;;;;;4985813;28;25060;-72
2021/09/20 11:59:57;;;;;;;10.60;7.10;;;20.20;94.80;;;;;;4984929;28;25114;-72
2021/09/20 12:02:30;;;;;;;7.77;6.97;;;20.50;93.50;;;;;;4986608;28;25067;-72
2021/09/20 12:04:56;;;;;;;7.10;6.40;;;20.90;92.60;;;;;;4987906;28;25101;-72
2021/09/20 12:07:34;;;;;;;8.10;6.35;;;20.60;92.30;;;;;;4987806;28;25069;-72
2021/09/20 12:10:00;;;;;;;21.35;7.40;;;20.30;91.10;;;;;;4988270;28;25066;-71
2021/09/20 12:12:28;;;;;;;8.38;6.32;;;20.20;90.50;;;;;;4988451;28;25079;-70
2021/09/20 12:15:04;;;;;;;17.08;7.00;;;20.10;92.20;;;;;;4989487;28;25064;-72
2021/09/20 12:17:49;;;;;;;8.98;6.43;;;19.90;90.70;;;;;;4988244;28;25101;-69
2021/09/20 12:20:16;;;;;;;7.80;5.47;;;20.00;90.90;;;;;;4988793;28;25076;-70
2021/09/20 12:22:44;;;;;;;10.60;6.57;;;19.90;91.20;;;;;;4988266;28;24991;-71
2021/09/20 12:25:28;;;;;;;6.90;6.20;;;19.80;91.30;;;;;;4987883;28;25084;-70
2021/09/20 12:27:55;;;;;;;10.77;6.53;;;20.10;89.30;;;;;;4988839;28;25058;-72
2021/09/20 12:30:23;;;;;;;12.05;6.72;;;20.20;90.10;;;;;;4987730;28;25128;-71
2021/09/20 12:33:00;;;;;;;6.18;5.53;;;20.20;91.40;;;;;;4989764;28;25090;-74
2021/09/20 12:35:29;;;;;;;9.95;6.03;;;20.80;90.90;;;;;;4989333;28;25064;-71
2021/09/20 12:37:55;;;;;;;6.32;5.68;;;21.10;88.60;;;;;;4988744;28;25064;-69
2021/09/20 12:40:23;;;;;;;8.23;6.28;;;21.10;88.00;;;;;;4988552;28;25059;-71
2021/09/20 12:43:09;;;;;;;8.05;6.70;;;21.40;87.70;;;;;;4986134;28;25163;-71
2021/09/20 12:45:41;;;;;;;11.10;6.25;;;21.10;85.60;;;;;;4983107;28;25132;-70